sensor_id;sensor_type;location;lat;lon;timestamp;P1;durP1;ratioP1;P2;durP2;ratioP2
16813;SDS011;8524;57.650;11.926;2023-07-09T00:01:41;4.23;;;3.83;;
16813;SDS011;8524;57.650;11.926;2023-07-09T00:04:09;4.00;;;3.60;;
16813;SDS011;8524;57.650;11.926;2023-07-09T00:06:38;4.33;;;3.90;;
16813;SDS011;8524;57.650;11.926;2023-07-09T00:09:06;4.87;;;3.90;;
16813;SDS011;8524;57.650;11.926;2023-07-09T00:11:39;4.60;;;4.17;;
16813;SDS011;8524;57.650;11.926;2023-07-09T00:14:07;4.00;;;3.67;;
16813;SDS011;8524;57.650;11.926;2023-07-09T00:16:35;4.63;;;3.97;;
16813;SDS011;8524;57.650;11.926;2023-07-09T00:19:03;4.60;;;4.20;;
16813;SDS011;8524;57.650;11.926;2023-07-09T00:21:30;6.33;;;4.17;;
16813;SDS011;8524;57.650;11.926;2023-07-09T00:24:00;4.63;;;4.10;;
16813;SDS011;8524;57.650;11.926;2023-07-09T00:26:30;4.93;;;4.03;;
16813;SDS011;8524;57.650;11.926;2023-07-09T00:28:58;5.07;;;4.27;;
16813;SDS011;8524;57.650;11.926;2023-07-09T00:31:25;4.80;;;4.27;;
16813;SDS011;8524;57.650;11.926;2023-07-09T00:33:52;4.07;;;3.73;;
16813;SDS011;8524;57.650;11.926;2023-07-09T00:36:24;4.80;;;4.40;;
16813;SDS011;8524;57.650;11.926;2023-07-09T00:38:54;4.97;;;3.97;;
16813;SDS011;8524;57.650;11.926;2023-07-09T00:41:25;4.70;;;4.20;;
16813;SDS011;8524;57.650;11.926;2023-07-09T00:43:53;5.07;;;4.57;;
16813;SDS011;8524;57.650;11.926;2023-07-09T00:49:29;4.37;;;3.90;;
16813;SDS011;8524;57.650;11.926;2023-07-09T00:51:59;4.23;;;3.83;;
16813;SDS011;8524;57.650;11.926;2023-07-09T00:54:30;4.13;;;3.50;;
16813;SDS011;8524;57.650;11.926;2023-07-09T00:57:05;3.83;;;3.50;;
16813;SDS011;8524;57.650;11.926;2023-07-09T00:59:37;5.73;;;4.20;;
16813;SDS011;8524;57.650;11.926;2023-07-09T01:02:06;3.87;;;3.50;;
16813;SDS011;8524;57.650;11.926;2023-07-09T01:04:34;4.87;;;4.30;;
16813;SDS011;8524;57.650;11.926;2023-07-09T01:07:04;4.70;;;3.90;;
16813;SDS011;8524;57.650;11.926;2023-07-09T01:09:31;5.00;;;4.10;;
16813;SDS011;8524;57.650;11.926;2023-07-09T01:12:01;5.57;;;4.87;;
16813;SDS011;8524;57.650;11.926;2023-07-09T01:14:32;4.43;;;4.00;;
16813;SDS011;8524;57.650;11.926;2023-07-09T01:17:02;5.63;;;4.73;;
16813;SDS011;8524;57.650;11.926;2023-07-09T01:19:36;5.50;;;4.53;;
16813;SDS011;8524;57.650;11.926;2023-07-09T01:22:09;4.90;;;4.47;;
16813;SDS011;8524;57.650;11.926;2023-07-09T01:24:52;6.77;;;4.67;;
16813;SDS011;8524;57.650;11.926;2023-07-09T01:27:27;5.30;;;4.43;;
16813;SDS011;8524;57.650;11.926;2023-07-09T01:29:56;4.57;;;4.17;;
16813;SDS011;8524;57.650;11.926;2023-07-09T01:32:24;4.83;;;4.33;;
16813;SDS011;8524;57.650;11.926;2023-07-09T01:34:53;4.50;;;4.10;;
16813;SDS011;8524;57.650;11.926;2023-07-09T01:37:23;5.27;;;4.77;;
16813;SDS011;8524;57.650;11.926;2023-07-09T01:39:53;4.93;;;4.50;;
16813;SDS011;8524;57.650;11.926;2023-07-09T01:42:21;4.63;;;4.23;;
16813;SDS011;8524;57.650;11.926;2023-07-09T01:44:50;5.70;;;4.50;;
16813;SDS011;8524;57.650;11.926;2023-07-09T01:47:19;5.10;;;4.50;;
16813;SDS011;8524;57.650;11.926;2023-07-09T01:49:47;5.40;;;4.83;;
16813;SDS011;8524;57.650;11.926;2023-07-09T01:52:14;4.63;;;4.23;;
16813;SDS011;8524;57.650;11.926;2023-07-09T01:54:45;4.97;;;4.50;;
16813;SDS011;8524;57.650;11.926;2023-07-09T01:57:15;4.77;;;4.37;;
16813;SDS011;8524;57.650;11.926;2023-07-09T01:59:48;5.10;;;4.60;;
16813;SDS011;8524;57.650;11.926;2023-07-09T02:02:16;5.03;;;4.53;;
16813;SDS011;8524;57.650;11.926;2023-07-09T02:04:45;5.10;;;4.17;;
16813;SDS011;8524;57.650;11.926;2023-07-09T02:07:13;5.40;;;4.85;;
16813;SDS011;8524;57.650;11.926;2023-07-09T02:09:41;4.93;;;4.50;;
16813;SDS011;8524;57.650;11.926;2023-07-09T02:12:10;4.47;;;4.07;;
16813;SDS011;8524;57.650;11.926;2023-07-09T02:14:39;4.93;;;4.23;;
16813;SDS011;8524;57.650;11.926;2023-07-09T02:17:07;5.87;;;4.23;;
16813;SDS011;8524;57.650;11.926;2023-07-09T02:19:34;4.83;;;4.43;;
16813;SDS011;8524;57.650;11.926;2023-07-09T02:22:02;5.13;;;4.63;;
16813;SDS011;8524;57.650;11.926;2023-07-09T02:24:29;5.20;;;4.70;;
16813;SDS011;8524;57.650;11.926;2023-07-09T02:26:57;5.43;;;4.63;;
16813;SDS011;8524;57.650;11.926;2023-07-09T02:29:27;5.27;;;4.23;;
16813;SDS011;8524;57.650;11.926;2023-07-09T02:31:55;4.33;;;4.00;;
16813;SDS011;8524;57.650;11.926;2023-07-09T02:34:23;4.13;;;3.83;;
16813;SDS011;8524;57.650;11.926;2023-07-09T02:36:51;5.17;;;4.73;;
16813;SDS011;8524;57.650;11.926;2023-07-09T02:39:19;5.17;;;4.67;;
16813;SDS011;8524;57.650;11.926;2023-07-09T02:41:46;4.60;;;4.20;;
16813;SDS011;8524;57.650;11.926;2023-07-09T02:44:14;5.28;;;4.80;;
16813;SDS011;8524;57.650;11.926;2023-07-09T02:46:43;4.50;;;4.07;;
16813;SDS011;8524;57.650;11.926;2023-07-09T02:49:12;4.70;;;4.30;;
16813;SDS011;8524;57.650;11.926;2023-07-09T02:51:39;5.33;;;4.77;;
16813;SDS011;8524;57.650;11.926;2023-07-09T02:54:07;5.70;;;4.33;;
16813;SDS011;8524;57.650;11.926;2023-07-09T02:56:34;5.03;;;4.53;;
16813;SDS011;8524;57.650;11.926;2023-07-09T02:59:01;5.50;;;5.00;;
16813;SDS011;8524;57.650;11.926;2023-07-09T03:01:28;4.47;;;4.10;;
16813;SDS011;8524;57.650;11.926;2023-07-09T03:03:58;4.67;;;4.27;;
16813;SDS011;8524;57.650;11.926;2023-07-09T03:06:27;5.00;;;4.50;;
16813;SDS011;8524;57.650;11.926;2023-07-09T03:08:54;4.73;;;4.33;;
16813;SDS011;8524;57.650;11.926;2023-07-09T03:11:21;5.40;;;4.90;;
16813;SDS011;8524;57.650;11.926;2023-07-09T03:13:49;5.10;;;4.70;;
16813;SDS011;8524;57.650;11.926;2023-07-09T03:16:16;4.80;;;4.40;;
16813;SDS011;8524;57.650;11.926;2023-07-09T03:18:45;5.63;;;5.13;;
16813;SDS011;8524;57.650;11.926;2023-07-09T03:21:13;5.07;;;4.68;;
16813;SDS011;8524;57.650;11.926;2023-07-09T03:23:40;5.30;;;4.83;;
16813;SDS011;8524;57.650;11.926;2023-07-09T03:26:08;5.30;;;4.90;;
16813;SDS011;8524;57.650;11.926;2023-07-09T03:28:35;5.10;;;4.60;;
16813;SDS011;8524;57.650;11.926;2023-07-09T03:31:02;4.60;;;4.20;;
16813;SDS011;8524;57.650;11.926;2023-07-09T03:33:29;5.47;;;4.90;;
16813;SDS011;8524;57.650;11.926;2023-07-09T03:35:56;4.83;;;4.20;;
16813;SDS011;8524;57.650;11.926;2023-07-09T03:38:24;5.40;;;4.90;;
16813;SDS011;8524;57.650;11.926;2023-07-09T03:40:51;5.63;;;4.80;;
16813;SDS011;8524;57.650;11.926;2023-07-09T03:43:18;5.23;;;4.73;;
16813;SDS011;8524;57.650;11.926;2023-07-09T03:45:46;4.73;;;4.30;;
16813;SDS011;8524;57.650;11.926;2023-07-09T03:48:14;5.10;;;4.57;;
16813;SDS011;8524;57.650;11.926;2023-07-09T03:50:43;4.97;;;4.47;;
16813;SDS011;8524;57.650;11.926;2023-07-09T03:53:11;4.63;;;4.23;;
16813;SDS011;8524;57.650;11.926;2023-07-09T03:55:40;4.97;;;4.57;;
16813;SDS011;8524;57.650;11.926;2023-07-09T03:58:07;5.33;;;4.83;;
16813;SDS011;8524;57.650;11.926;2023-07-09T04:00:35;4.97;;;4.47;;
16813;SDS011;8524;57.650;11.926;2023-07-09T04:03:02;4.97;;;4.57;;
16813;SDS011;8524;57.650;11.926;2023-07-09T04:05:29;5.40;;;4.90;;
16813;SDS011;8524;57.650;11.926;2023-07-09T04:07:56;6.20;;;5.60;;
16813;SDS011;8524;57.650;11.926;2023-07-09T04:10:23;5.13;;;4.70;;
16813;SDS011;8524;57.650;11.926;2023-07-09T04:12:51;5.43;;;4.93;;
16813;SDS011;8524;57.650;11.926;2023-07-09T04:15:19;4.57;;;4.17;;
16813;SDS011;8524;57.650;11.926;2023-07-09T04:17:46;4.70;;;4.20;;
16813;SDS011;8524;57.650;11.926;2023-07-09T04:20:13;4.73;;;4.33;;
16813;SDS011;8524;57.650;11.926;2023-07-09T04:22:41;5.30;;;4.87;;
16813;SDS011;8524;57.650;11.926;2023-07-09T04:25:09;4.80;;;4.40;;
16813;SDS011;8524;57.650;11.926;2023-07-09T04:27:37;5.67;;;5.17;;
16813;SDS011;8524;57.650;11.926;2023-07-09T04:30:07;5.33;;;4.83;;
16813;SDS011;8524;57.650;11.926;2023-07-09T04:32:36;5.70;;;4.50;;
16813;SDS011;8524;57.650;11.926;2023-07-09T04:35:04;5.57;;;5.07;;
16813;SDS011;8524;57.650;11.926;2023-07-09T04:37:31;5.50;;;4.80;;
16813;SDS011;8524;57.650;11.926;2023-07-09T04:39:59;5.60;;;4.70;;
16813;SDS011;8524;57.650;11.926;2023-07-09T04:42:26;5.03;;;4.63;;
16813;SDS011;8524;57.650;11.926;2023-07-09T04:44:53;6.53;;;5.00;;
16813;SDS011;8524;57.650;11.926;2023-07-09T04:47:22;6.03;;;4.87;;
16813;SDS011;8524;57.650;11.926;2023-07-09T04:49:49;5.93;;;5.33;;
16813;SDS011;8524;57.650;11.926;2023-07-09T04:52:16;6.37;;;4.70;;
16813;SDS011;8524;57.650;11.926;2023-07-09T04:54:44;5.07;;;4.67;;
16813;SDS011;8524;57.650;11.926;2023-07-09T04:57:11;4.90;;;4.50;;
16813;SDS011;8524;57.650;11.926;2023-07-09T04:59:38;5.20;;;4.73;;
16813;SDS011;8524;57.650;11.926;2023-07-09T05:02:06;5.13;;;4.73;;
16813;SDS011;8524;57.650;11.926;2023-07-09T05:04:35;4.80;;;4.40;;
16813;SDS011;8524;57.650;11.926;2023-07-09T05:07:02;4.93;;;4.53;;
16813;SDS011;8524;57.650;11.926;2023-07-09T05:09:29;4.77;;;4.37;;
16813;SDS011;8524;57.650;11.926;2023-07-09T05:11:56;5.15;;;4.75;;
16813;SDS011;8524;57.650;11.926;2023-07-09T05:14:23;4.97;;;4.57;;
16813;SDS011;8524;57.650;11.926;2023-07-09T05:16:50;5.03;;;4.53;;
16813;SDS011;8524;57.650;11.926;2023-07-09T05:19:17;5.17;;;4.67;;
16813;SDS011;8524;57.650;11.926;2023-07-09T05:21:45;5.60;;;4.77;;
16813;SDS011;8524;57.650;11.926;2023-07-09T05:24:12;5.73;;;5.17;;
16813;SDS011;8524;57.650;11.926;2023-07-09T05:26:39;5.43;;;4.93;;
16813;SDS011;8524;57.650;11.926;2023-07-09T05:29:06;5.63;;;4.90;;
16813;SDS011;8524;57.650;11.926;2023-07-09T05:31:33;5.43;;;4.90;;
16813;SDS011;8524;57.650;11.926;2023-07-09T05:34:01;6.80;;;4.77;;
16813;SDS011;8524;57.650;11.926;2023-07-09T05:36:28;6.27;;;4.67;;
16813;SDS011;8524;57.650;11.926;2023-07-09T05:38:57;5.20;;;4.70;;
16813;SDS011;8524;57.650;11.926;2023-07-09T05:41:24;4.50;;;4.10;;
16813;SDS011;8524;57.650;11.926;2023-07-09T05:43:51;4.50;;;4.10;;
16813;SDS011;8524;57.650;11.926;2023-07-09T05:46:18;4.30;;;3.90;;
16813;SDS011;8524;57.650;11.926;2023-07-09T05:48:48;4.30;;;3.63;;
16813;SDS011;8524;57.650;11.926;2023-07-09T05:51:16;4.30;;;3.90;;
16813;SDS011;8524;57.650;11.926;2023-07-09T05:53:43;4.47;;;3.87;;
16813;SDS011;8524;57.650;11.926;2023-07-09T05:56:11;4.30;;;3.77;;
16813;SDS011;8524;57.650;11.926;2023-07-09T05:58:38;4.17;;;3.73;;
16813;SDS011;8524;57.650;11.926;2023-07-09T06:01:06;5.27;;;3.80;;
16813;SDS011;8524;57.650;11.926;2023-07-09T06:03:33;4.53;;;3.90;;
16813;SDS011;8524;57.650;11.926;2023-07-09T06:06:00;4.37;;;3.97;;
16813;SDS011;8524;57.650;11.926;2023-07-09T06:08:27;5.40;;;3.50;;
16813;SDS011;8524;57.650;11.926;2023-07-09T06:10:54;3.80;;;3.47;;
16813;SDS011;8524;57.650;11.926;2023-07-09T06:13:25;4.27;;;3.17;;
16813;SDS011;8524;57.650;11.926;2023-07-09T06:15:53;3.87;;;3.37;;
16813;SDS011;8524;57.650;11.926;2023-07-09T06:18:21;5.17;;;3.60;;
16813;SDS011;8524;57.650;11.926;2023-07-09T06:20:50;3.23;;;2.93;;
16813;SDS011;8524;57.650;11.926;2023-07-09T06:23:18;4.73;;;3.43;;
16813;SDS011;8524;57.650;11.926;2023-07-09T06:25:46;4.00;;;3.00;;
16813;SDS011;8524;57.650;11.926;2023-07-09T06:28:14;4.40;;;3.40;;
16813;SDS011;8524;57.650;11.926;2023-07-09T06:30:43;4.03;;;3.30;;
16813;SDS011;8524;57.650;11.926;2023-07-09T06:33:11;3.83;;;2.70;;
16813;SDS011;8524;57.650;11.926;2023-07-09T06:35:45;4.17;;;3.00;;
16813;SDS011;8524;57.650;11.926;2023-07-09T06:38:12;3.70;;;3.17;;
16813;SDS011;8524;57.650;11.926;2023-07-09T06:40:39;3.97;;;2.93;;
16813;SDS011;8524;57.650;11.926;2023-07-09T06:43:06;4.70;;;3.13;;
16813;SDS011;8524;57.650;11.926;2023-07-09T06:45:33;3.10;;;2.80;;
16813;SDS011;8524;57.650;11.926;2023-07-09T06:48:02;3.90;;;3.03;;
16813;SDS011;8524;57.650;11.926;2023-07-09T06:50:32;5.50;;;3.03;;
16813;SDS011;8524;57.650;11.926;2023-07-09T06:53:02;3.83;;;2.90;;
16813;SDS011;8524;57.650;11.926;2023-07-09T06:55:29;2.97;;;2.63;;
16813;SDS011;8524;57.650;11.926;2023-07-09T06:57:57;3.47;;;2.30;;
16813;SDS011;8524;57.650;11.926;2023-07-09T07:00:24;4.25;;;2.75;;
16813;SDS011;8524;57.650;11.926;2023-07-09T07:02:51;2.67;;;2.00;;
16813;SDS011;8524;57.650;11.926;2023-07-09T07:05:19;3.13;;;2.57;;
16813;SDS011;8524;57.650;11.926;2023-07-09T07:07:46;2.80;;;2.40;;
16813;SDS011;8524;57.650;11.926;2023-07-09T07:10:13;2.33;;;2.13;;
16813;SDS011;8524;57.650;11.926;2023-07-09T07:12:41;2.50;;;2.20;;
16813;SDS011;8524;57.650;11.926;2023-07-09T07:15:11;2.97;;;2.33;;
16813;SDS011;8524;57.650;11.926;2023-07-09T07:17:39;4.07;;;2.47;;
16813;SDS011;8524;57.650;11.926;2023-07-09T07:20:07;2.33;;;2.03;;
16813;SDS011;8524;57.650;11.926;2023-07-09T07:22:37;2.33;;;1.80;;
16813;SDS011;8524;57.650;11.926;2023-07-09T07:25:05;2.30;;;2.07;;
16813;SDS011;8524;57.650;11.926;2023-07-09T07:27:33;2.50;;;1.93;;
16813;SDS011;8524;57.650;11.926;2023-07-09T07:30:01;2.13;;;1.90;;
16813;SDS011;8524;57.650;11.926;2023-07-09T07:32:28;2.90;;;1.95;;
16813;SDS011;8524;57.650;11.926;2023-07-09T07:34:55;2.60;;;2.40;;
16813;SDS011;8524;57.650;11.926;2023-07-09T07:37:22;3.30;;;2.13;;
16813;SDS011;8524;57.650;11.926;2023-07-09T07:39:50;2.23;;;1.80;;
16813;SDS011;8524;57.650;11.926;2023-07-09T07:42:17;2.07;;;1.87;;
16813;SDS011;8524;57.650;11.926;2023-07-09T07:44:44;2.20;;;1.65;;
16813;SDS011;8524;57.650;11.926;2023-07-09T07:47:11;1.98;;;1.80;;
16813;SDS011;8524;57.650;11.926;2023-07-09T07:49:38;3.20;;;2.17;;
16813;SDS011;8524;57.650;11.926;2023-07-09T07:52:06;2.08;;;1.88;;
16813;SDS011;8524;57.650;11.926;2023-07-09T07:54:35;2.40;;;1.98;;
16813;SDS011;8524;57.650;11.926;2023-07-09T07:57:04;2.17;;;1.98;;
16813;SDS011;8524;57.650;11.926;2023-07-09T07:59:34;2.13;;;1.92;;
16813;SDS011;8524;57.650;11.926;2023-07-09T08:02:01;3.13;;;2.22;;
16813;SDS011;8524;57.650;11.926;2023-07-09T08:04:28;3.25;;;2.20;;
16813;SDS011;8524;57.650;11.926;2023-07-09T08:06:55;2.38;;;2.17;;
16813;SDS011;8524;57.650;11.926;2023-07-09T08:09:23;3.22;;;2.13;;
16813;SDS011;8524;57.650;11.926;2023-07-09T08:11:50;2.40;;;2.20;;
16813;SDS011;8524;57.650;11.926;2023-07-09T08:14:19;3.20;;;2.30;;
16813;SDS011;8524;57.650;11.926;2023-07-09T08:16:46;2.80;;;2.28;;
16813;SDS011;8524;57.650;11.926;2023-07-09T08:19:14;2.30;;;2.10;;
16813;SDS011;8524;57.650;11.926;2023-07-09T08:21:44;2.75;;;2.55;;
16813;SDS011;8524;57.650;11.926;2023-07-09T08:24:11;3.90;;;2.38;;
16813;SDS011;8524;57.650;11.926;2023-07-09T08:26:39;3.17;;;2.30;;
16813;SDS011;8524;57.650;11.926;2023-07-09T08:29:06;3.15;;;2.30;;
16813;SDS011;8524;57.650;11.926;2023-07-09T08:31:35;3.70;;;2.40;;
16813;SDS011;8524;57.650;11.926;2023-07-09T08:34:02;4.72;;;2.33;;
16813;SDS011;8524;57.650;11.926;2023-07-09T08:36:29;4.00;;;2.42;;
16813;SDS011;8524;57.650;11.926;2023-07-09T08:38:56;2.72;;;2.22;;
16813;SDS011;8524;57.650;11.926;2023-07-09T08:41:31;3.70;;;2.60;;
16813;SDS011;8524;57.650;11.926;2023-07-09T08:44:19;2.83;;;2.35;;
16813;SDS011;8524;57.650;11.926;2023-07-09T08:47:08;2.33;;;2.13;;
16813;SDS011;8524;57.650;11.926;2023-07-09T08:49:44;4.70;;;2.42;;
16813;SDS011;8524;57.650;11.926;2023-07-09T08:52:16;2.95;;;2.67;;
16813;SDS011;8524;57.650;11.926;2023-07-09T08:54:50;3.55;;;2.40;;
16813;SDS011;8524;57.650;11.926;2023-07-09T08:57:19;4.93;;;2.20;;
16813;SDS011;8524;57.650;11.926;2023-07-09T08:59:49;2.65;;;2.40;;
16813;SDS011;8524;57.650;11.926;2023-07-09T09:02:25;2.92;;;2.30;;
16813;SDS011;8524;57.650;11.926;2023-07-09T09:04:58;2.35;;;2.13;;
16813;SDS011;8524;57.650;11.926;2023-07-09T09:07:29;3.72;;;2.20;;
16813;SDS011;8524;57.650;11.926;2023-07-09T09:10:04;2.83;;;2.40;;
16813;SDS011;8524;57.650;11.926;2023-07-09T09:12:35;2.60;;;2.20;;
16813;SDS011;8524;57.650;11.926;2023-07-09T09:15:14;3.60;;;2.28;;
16813;SDS011;8524;57.650;11.926;2023-07-09T09:17:45;2.63;;;2.40;;
16813;SDS011;8524;57.650;11.926;2023-07-09T09:20:17;3.60;;;2.47;;
16813;SDS011;8524;57.650;11.926;2023-07-09T09:22:48;2.60;;;2.38;;
16813;SDS011;8524;57.650;11.926;2023-07-09T09:25:21;3.42;;;2.45;;
16813;SDS011;8524;57.650;11.926;2023-07-09T09:27:51;3.47;;;2.38;;
16813;SDS011;8524;57.650;11.926;2023-07-09T09:30:21;2.55;;;2.30;;
16813;SDS011;8524;57.650;11.926;2023-07-09T09:32:53;3.17;;;2.42;;
16813;SDS011;8524;57.650;11.926;2023-07-09T09:35:25;3.43;;;2.50;;
16813;SDS011;8524;57.650;11.926;2023-07-09T09:37:54;3.42;;;2.75;;
16813;SDS011;8524;57.650;11.926;2023-07-09T09:40:23;3.05;;;2.25;;
16813;SDS011;8524;57.650;11.926;2023-07-09T09:42:52;2.80;;;2.20;;
16813;SDS011;8524;57.650;11.926;2023-07-09T09:45:32;2.53;;;2.08;;
16813;SDS011;8524;57.650;11.926;2023-07-09T09:48:09;4.10;;;2.60;;
16813;SDS011;8524;57.650;11.926;2023-07-09T09:50:40;2.42;;;2.22;;
16813;SDS011;8524;57.650;11.926;2023-07-09T09:53:07;3.45;;;2.22;;
16813;SDS011;8524;57.650;11.926;2023-07-09T09:55:37;3.20;;;2.40;;
16813;SDS011;8524;57.650;11.926;2023-07-09T09:58:11;2.75;;;2.33;;
16813;SDS011;8524;57.650;11.926;2023-07-09T10:00:40;2.92;;;2.20;;
16813;SDS011;8524;57.650;11.926;2023-07-09T10:03:14;2.67;;;2.20;;
16813;SDS011;8524;57.650;11.926;2023-07-09T10:05:42;4.40;;;2.83;;
16813;SDS011;8524;57.650;11.926;2023-07-09T10:08:12;3.10;;;2.50;;
16813;SDS011;8524;57.650;11.926;2023-07-09T10:10:44;2.53;;;1.98;;
16813;SDS011;8524;57.650;11.926;2023-07-09T10:13:16;2.47;;;2.10;;
16813;SDS011;8524;57.650;11.926;2023-07-09T10:15:52;3.08;;;2.20;;
16813;SDS011;8524;57.650;11.926;2023-07-09T10:18:32;3.55;;;2.20;;
16813;SDS011;8524;57.650;11.926;2023-07-09T10:21:09;2.38;;;2.10;;
16813;SDS011;8524;57.650;11.926;2023-07-09T10:23:43;3.03;;;2.20;;
16813;SDS011;8524;57.650;11.926;2023-07-09T10:26:19;2.67;;;2.08;;
16813;SDS011;8524;57.650;11.926;2023-07-09T10:28:56;2.55;;;1.90;;
16813;SDS011;8524;57.650;11.926;2023-07-09T10:31:43;2.10;;;1.90;;
16813;SDS011;8524;57.650;11.926;2023-07-09T10:34:20;3.30;;;2.10;;
16813;SDS011;8524;57.650;11.926;2023-07-09T10:37:06;2.15;;;1.90;;
16813;SDS011;8524;57.650;11.926;2023-07-09T10:39:46;2.20;;;2.00;;
16813;SDS011;8524;57.650;11.926;2023-07-09T10:42:18;2.30;;;2.10;;
16813;SDS011;8524;57.650;11.926;2023-07-09T10:44:55;2.42;;;2.22;;
16813;SDS011;8524;57.650;11.926;2023-07-09T10:47:29;2.22;;;2.00;;
16813;SDS011;8524;57.650;11.926;2023-07-09T10:50:01;2.03;;;1.80;;
16813;SDS011;8524;57.650;11.926;2023-07-09T10:52:32;2.20;;;2.10;;
16813;SDS011;8524;57.650;11.926;2023-07-09T10:55:03;2.00;;;1.80;;
16813;SDS011;8524;57.650;11.926;2023-07-09T10:57:38;2.40;;;2.20;;
16813;SDS011;8524;57.650;11.926;2023-07-09T11:00:13;2.00;;;1.90;;
16813;SDS011;8524;57.650;11.926;2023-07-09T11:02:44;2.30;;;1.83;;
16813;SDS011;8524;57.650;11.926;2023-07-09T11:05:15;2.65;;;2.10;;
16813;SDS011;8524;57.650;11.926;2023-07-09T11:07:48;2.33;;;2.00;;
16813;SDS011;8524;57.650;11.926;2023-07-09T11:10:24;2.20;;;2.00;;
16813;SDS011;8524;57.650;11.926;2023-07-09T11:12:57;2.13;;;1.83;;
16813;SDS011;8524;57.650;11.926;2023-07-09T11:15:29;2.72;;;2.10;;
16813;SDS011;8524;57.650;11.926;2023-07-09T11:17:59;2.40;;;1.85;;
16813;SDS011;8524;57.650;11.926;2023-07-09T11:20:28;2.60;;;2.10;;
16813;SDS011;8524;57.650;11.926;2023-07-09T11:23:01;3.75;;;1.90;;
16813;SDS011;8524;57.650;11.926;2023-07-09T11:25:31;2.35;;;2.13;;
16813;SDS011;8524;57.650;11.926;2023-07-09T11:28:07;3.08;;;2.20;;
16813;SDS011;8524;57.650;11.926;2023-07-09T11:30:45;3.13;;;2.22;;
16813;SDS011;8524;57.650;11.926;2023-07-09T11:33:17;3.17;;;2.38;;
16813;SDS011;8524;57.650;11.926;2023-07-09T11:35:47;3.08;;;2.30;;
16813;SDS011;8524;57.650;11.926;2023-07-09T11:38:17;2.60;;;2.22;;
16813;SDS011;8524;57.650;11.926;2023-07-09T11:40:45;4.38;;;2.40;;
16813;SDS011;8524;57.650;11.926;2023-07-09T11:43:25;2.72;;;2.28;;
16813;SDS011;8524;57.650;11.926;2023-07-09T11:45:54;2.90;;;2.40;;
16813;SDS011;8524;57.650;11.926;2023-07-09T11:48:29;2.50;;;2.30;;
16813;SDS011;8524;57.650;11.926;2023-07-09T11:51:02;2.63;;;2.28;;
16813;SDS011;8524;57.650;11.926;2023-07-09T11:53:35;3.10;;;2.10;;
16813;SDS011;8524;57.650;11.926;2023-07-09T11:56:08;2.47;;;2.05;;
16813;SDS011;8524;57.650;11.926;2023-07-09T11:58:35;2.50;;;2.30;;
16813;SDS011;8524;57.650;11.926;2023-07-09T12:01:02;2.60;;;2.10;;
16813;SDS011;8524;57.650;11.926;2023-07-09T12:03:39;4.00;;;2.20;;
16813;SDS011;8524;57.650;11.926;2023-07-09T12:06:16;2.72;;;2.20;;
16813;SDS011;8524;57.650;11.926;2023-07-09T12:08:46;2.28;;;1.90;;
16813;SDS011;8524;57.650;11.926;2023-07-09T12:11:19;2.13;;;1.80;;
16813;SDS011;8524;57.650;11.926;2023-07-09T12:13:47;2.38;;;2.08;;
16813;SDS011;8524;57.650;11.926;2023-07-09T12:16:18;3.10;;;2.20;;
16813;SDS011;8524;57.650;11.926;2023-07-09T12:18:47;2.80;;;2.00;;
16813;SDS011;8524;57.650;11.926;2023-07-09T12:21:16;1.90;;;1.70;;
16813;SDS011;8524;57.650;11.926;2023-07-09T12:23:43;2.10;;;1.88;;
16813;SDS011;8524;57.650;11.926;2023-07-09T12:26:11;3.15;;;2.22;;
16813;SDS011;8524;57.650;11.926;2023-07-09T12:28:40;2.80;;;2.08;;
16813;SDS011;8524;57.650;11.926;2023-07-09T12:31:11;3.08;;;2.10;;
16813;SDS011;8524;57.650;11.926;2023-07-09T12:33:46;2.50;;;2.10;;
16813;SDS011;8524;57.650;11.926;2023-07-09T12:36:16;2.13;;;1.90;;
16813;SDS011;8524;57.650;11.926;2023-07-09T12:38:45;1.83;;;1.73;;
16813;SDS011;8524;57.650;11.926;2023-07-09T12:41:16;1.83;;;1.70;;
16813;SDS011;8524;57.650;11.926;2023-07-09T12:43:46;2.13;;;1.75;;
16813;SDS011;8524;57.650;11.926;2023-07-09T12:46:13;1.85;;;1.67;;
16813;SDS011;8524;57.650;11.926;2023-07-09T12:48:40;2.22;;;2.00;;
16813;SDS011;8524;57.650;11.926;2023-07-09T12:51:08;2.53;;;2.33;;
16813;SDS011;8524;57.650;11.926;2023-07-09T12:53:36;4.15;;;2.00;;
16813;SDS011;8524;57.650;11.926;2023-07-09T12:56:09;2.45;;;2.08;;
16813;SDS011;8524;57.650;11.926;2023-07-09T12:58:38;1.60;;;1.50;;
16813;SDS011;8524;57.650;11.926;2023-07-09T13:01:06;3.42;;;1.90;;
16813;SDS011;8524;57.650;11.926;2023-07-09T13:03:39;2.28;;;1.90;;
16813;SDS011;8524;57.650;11.926;2023-07-09T13:06:27;2.03;;;1.83;;
16813;SDS011;8524;57.650;11.926;2023-07-09T13:08:58;2.33;;;2.05;;
16813;SDS011;8524;57.650;11.926;2023-07-09T13:11:31;1.70;;;1.60;;
16813;SDS011;8524;57.650;11.926;2023-07-09T13:13:59;2.10;;;1.90;;
16813;SDS011;8524;57.650;11.926;2023-07-09T13:16:29;1.92;;;1.65;;
16813;SDS011;8524;57.650;11.926;2023-07-09T13:18:56;2.05;;;1.40;;
16813;SDS011;8524;57.650;11.926;2023-07-09T13:21:23;2.00;;;1.90;;
16813;SDS011;8524;57.650;11.926;2023-07-09T13:23:50;2.72;;;1.85;;
16813;SDS011;8524;57.650;11.926;2023-07-09T13:26:20;1.92;;;1.70;;
16813;SDS011;8524;57.650;11.926;2023-07-09T13:28:47;1.98;;;1.80;;
16813;SDS011;8524;57.650;11.926;2023-07-09T13:31:16;2.85;;;1.75;;
16813;SDS011;8524;57.650;11.926;2023-07-09T13:33:49;2.55;;;1.60;;
16813;SDS011;8524;57.650;11.926;2023-07-09T13:36:19;1.30;;;1.20;;
16813;SDS011;8524;57.650;11.926;2023-07-09T13:38:46;1.60;;;1.30;;
16813;SDS011;8524;57.650;11.926;2023-07-09T13:41:13;2.00;;;1.60;;
16813;SDS011;8524;57.650;11.926;2023-07-09T13:43:45;2.83;;;2.25;;
16813;SDS011;8524;57.650;11.926;2023-07-09T13:46:13;2.17;;;1.92;;
16813;SDS011;8524;57.650;11.926;2023-07-09T13:48:41;2.40;;;2.20;;
16813;SDS011;8524;57.650;11.926;2023-07-09T13:51:13;2.97;;;2.05;;
16813;SDS011;8524;57.650;11.926;2023-07-09T13:53:42;2.30;;;2.10;;
16813;SDS011;8524;57.650;11.926;2023-07-09T13:56:09;2.50;;;2.30;;
16813;SDS011;8524;57.650;11.926;2023-07-09T13:58:36;2.50;;;2.30;;
16813;SDS011;8524;57.650;11.926;2023-07-09T14:01:08;2.30;;;2.10;;
16813;SDS011;8524;57.650;11.926;2023-07-09T14:03:38;2.50;;;2.30;;
16813;SDS011;8524;57.650;11.926;2023-07-09T14:06:08;1.88;;;1.67;;
16813;SDS011;8524;57.650;11.926;2023-07-09T14:08:36;2.00;;;1.80;;
16813;SDS011;8524;57.650;11.926;2023-07-09T14:11:07;2.13;;;1.92;;
16813;SDS011;8524;57.650;11.926;2023-07-09T14:13:36;2.28;;;1.77;;
16813;SDS011;8524;57.650;11.926;2023-07-09T14:16:03;2.70;;;1.85;;
16813;SDS011;8524;57.650;11.926;2023-07-09T14:18:32;1.83;;;1.73;;
16813;SDS011;8524;57.650;11.926;2023-07-09T14:20:59;2.63;;;2.10;;
16813;SDS011;8524;57.650;11.926;2023-07-09T14:23:27;2.08;;;1.90;;
16813;SDS011;8524;57.650;11.926;2023-07-09T14:25:55;2.33;;;1.98;;
16813;SDS011;8524;57.650;11.926;2023-07-09T14:28:22;2.00;;;1.80;;
16813;SDS011;8524;57.650;11.926;2023-07-09T14:30:49;1.88;;;1.77;;
16813;SDS011;8524;57.650;11.926;2023-07-09T14:33:17;2.13;;;1.92;;
16813;SDS011;8524;57.650;11.926;2023-07-09T14:35:47;2.00;;;1.80;;
16813;SDS011;8524;57.650;11.926;2023-07-09T14:38:16;2.30;;;1.90;;
16813;SDS011;8524;57.650;11.926;2023-07-09T14:40:45;2.78;;;1.90;;
16813;SDS011;8524;57.650;11.926;2023-07-09T14:43:13;2.95;;;1.70;;
16813;SDS011;8524;57.650;11.926;2023-07-09T14:45:40;1.98;;;1.77;;
16813;SDS011;8524;57.650;11.926;2023-07-09T14:48:08;2.83;;;1.80;;
16813;SDS011;8524;57.650;11.926;2023-07-09T14:50:37;2.08;;;1.88;;
16813;SDS011;8524;57.650;11.926;2023-07-09T14:53:08;2.42;;;2.22;;
16813;SDS011;8524;57.650;11.926;2023-07-09T14:55:39;3.22;;;2.53;;
16813;SDS011;8524;57.650;11.926;2023-07-09T14:58:09;2.80;;;2.33;;
16813;SDS011;8524;57.650;11.926;2023-07-09T15:00:40;2.88;;;2.17;;
16813;SDS011;8524;57.650;11.926;2023-07-09T15:03:09;2.47;;;2.10;;
16813;SDS011;8524;57.650;11.926;2023-07-09T15:05:37;3.00;;;2.08;;